sensor_id;sensor_type;location;lat;lon;timestamp;pressure;altitude;pressure_sealevel;temperature;humidity
31911;BME280;18457;52.432;16.914;2022-09-25T00:01:33;100301.66;;;12.50;83.06
31911;BME280;18457;52.432;16.914;2022-09-25T00:04:02;100301.95;;;12.41;83.75
31911;BME280;18457;52.432;16.914;2022-09-25T00:06:31;100297.38;;;12.32;84.09
31911;BME280;18457;52.432;16.914;2022-09-25T00:09:01;100293.64;;;12.36;83.82
31911;BME280;18457;52.432;16.914;2022-09-25T00:11:31;100297.91;;;12.38;83.46
31911;BME280;18457;52.432;16.914;2022-09-25T00:14:01;100297.95;;;12.25;84.06
31911;BME280;18457;52.432;16.914;2022-09-25T00:16:31;100294.40;;;12.17;84.45
31911;BME280;18457;52.432;16.914;2022-09-25T00:19:00;100288.48;;;12.27;83.61
31911;BME280;18457;52.432;16.914;2022-09-25T00:22:01;100288.30;;;12.33;83.00
31911;BME280;18457;52.432;16.914;2022-09-25T00:24:30;100283.73;;;12.28;83.14
31911;BME280;18457;52.432;16.914;2022-09-25T00:27:00;100281.05;;;12.27;83.21
31911;BME280;18457;52.432;16.914;2022-09-25T00:29:28;100278.49;;;12.28;83.34
31911;BME280;18457;52.432;16.914;2022-09-25T00:31:58;100276.94;;;12.14;84.07
31911;BME280;18457;52.432;16.914;2022-09-25T00:34:26;100279.38;;;12.01;84.93
31911;BME280;18457;52.432;16.914;2022-09-25T00:36:55;100285.08;;;11.92;85.43
31911;BME280;18457;52.432;16.914;2022-09-25T00:39:24;100284.52;;;11.82;85.90
31911;BME280;18457;52.432;16.914;2022-09-25T00:41:53;100283.95;;;11.77;85.96
31911;BME280;18457;52.432;16.914;2022-09-25T00:44:52;100279.27;;;11.76;85.53
31911;BME280;18457;52.432;16.914;2022-09-25T00:47:30;100269.90;;;11.68;86.03
31911;BME280;18457;52.432;16.914;2022-09-25T00:50:01;100268.27;;;11.62;86.58
31911;BME280;18457;52.432;16.914;2022-09-25T00:52:32;100264.69;;;11.61;86.20
31911;BME280;18457;52.432;16.914;2022-09-25T00:55:03;100267.48;;;11.65;85.77
31911;BME280;18457;52.432;16.914;2022-09-25T00:57:34;100264.72;;;11.60;85.76
31911;BME280;18457;52.432;16.914;2022-09-25T01:00:08;100260.94;;;11.53;86.41
31911;BME280;18457;52.432;16.914;2022-09-25T01:02:39;100262.54;;;11.48;86.68
31911;BME280;18457;52.432;16.914;2022-09-25T01:05:12;100264.66;;;11.43;87.20
31911;BME280;18457;52.432;16.914;2022-09-25T01:07:45;100260.92;;;11.41;87.25
31911;BME280;18457;52.432;16.914;2022-09-25T01:10:15;100262.50;;;11.43;86.95
31911;BME280;18457;52.432;16.914;2022-09-25T01:12:47;100262.68;;;11.37;86.62
31911;BME280;18457;52.432;16.914;2022-09-25T01:15:18;100262.73;;;11.35;86.53
31911;BME280;18457;52.432;16.914;2022-09-25T01:17:57;100260.67;;;11.44;85.97
31911;BME280;18457;52.432;16.914;2022-09-25T01:20:45;100258.77;;;11.29;86.95
31911;BME280;18457;52.432;16.914;2022-09-25T01:23:28;100258.66;;;11.39;86.31
31911;BME280;18457;52.432;16.914;2022-09-25T01:26:14;100259.86;;;11.40;86.07
31911;BME280;18457;52.432;16.914;2022-09-25T01:28:56;100262.35;;;11.30;86.23
31911;BME280;18457;52.432;16.914;2022-09-25T01:31:34;100262.35;;;11.24;86.44
31911;BME280;18457;52.432;16.914;2022-09-25T01:34:09;100261.41;;;11.19;86.57
31911;BME280;18457;52.432;16.914;2022-09-25T01:36:45;100261.21;;;11.19;86.60
31911;BME280;18457;52.432;16.914;2022-09-25T01:39:19;100260.89;;;11.18;86.71
31911;BME280;18457;52.432;16.914;2022-09-25T01:41:52;100255.84;;;11.06;87.45
31911;BME280;18457;52.432;16.914;2022-09-25T01:44:25;100258.52;;;10.99;87.79
31911;BME280;18457;52.432;16.914;2022-09-25T01:47:01;100257.68;;;10.98;87.98
31911;BME280;18457;52.432;16.914;2022-09-25T01:49:36;100263.71;;;11.02;87.59
31911;BME280;18457;52.432;16.914;2022-09-25T01:52:10;100261.58;;;11.00;86.96
31911;BME280;18457;52.432;16.914;2022-09-25T01:54:44;100264.02;;;11.03;86.52
31911;BME280;18457;52.432;16.914;2022-09-25T01:57:17;100265.30;;;11.03;86.22
31911;BME280;18457;52.432;16.914;2022-09-25T01:59:51;100266.39;;;10.96;86.98
31911;BME280;18457;52.432;16.914;2022-09-25T02:02:25;100265.09;;;10.91;87.17
31911;BME280;18457;52.432;16.914;2022-09-25T02:04:58;100268.27;;;10.87;87.11
31911;BME280;18457;52.432;16.914;2022-09-25T02:07:33;100265.16;;;10.83;87.26
31911;BME280;18457;52.432;16.914;2022-09-25T02:10:06;100263.52;;;10.83;87.71
31911;BME280;18457;52.432;16.914;2022-09-25T02:12:39;100266.25;;;10.82;88.02
31911;BME280;18457;52.432;16.914;2022-09-25T02:15:12;100266.70;;;10.85;87.98
31911;BME280;18457;52.432;16.914;2022-09-25T02:17:47;100262.59;;;10.71;87.78
31911;BME280;18457;52.432;16.914;2022-09-25T02:20:37;100262.45;;;10.69;88.39
31911;BME280;18457;52.432;16.914;2022-09-25T02:23:15;100262.30;;;10.87;87.43
31911;BME280;18457;52.432;16.914;2022-09-25T02:25:47;100263.67;;;10.90;86.69
31911;BME280;18457;52.432;16.914;2022-09-25T02:28:21;100264.27;;;10.88;86.57
31911;BME280;18457;52.432;16.914;2022-09-25T02:30:51;100264.11;;;10.74;87.26
31911;BME280;18457;52.432;16.914;2022-09-25T02:33:21;100266.73;;;10.65;87.92
31911;BME280;18457;52.432;16.914;2022-09-25T02:35:51;100262.69;;;10.60;88.93
31911;BME280;18457;52.432;16.914;2022-09-25T02:38:20;100263.30;;;10.64;88.81
31911;BME280;18457;52.432;16.914;2022-09-25T02:40:53;100264.50;;;10.73;88.23
31911;BME280;18457;52.432;16.914;2022-09-25T02:43:34;100263.70;;;10.70;88.37
31911;BME280;18457;52.432;16.914;2022-09-25T02:46:09;100261.35;;;10.70;88.38
31911;BME280;18457;52.432;16.914;2022-09-25T02:48:46;100263.23;;;10.67;88.25
31911;BME280;18457;52.432;16.914;2022-09-25T02:51:23;100259.15;;;10.64;87.68
31911;BME280;18457;52.432;16.914;2022-09-25T02:54:02;100255.73;;;10.64;87.74
31911;BME280;18457;52.432;16.914;2022-09-25T02:56:36;100258.16;;;10.61;88.43
31911;BME280;18457;52.432;16.914;2022-09-25T02:59:10;100257.34;;;10.71;87.71
31911;BME280;18457;52.432;16.914;2022-09-25T03:01:42;100258.20;;;10.79;87.43
31911;BME280;18457;52.432;16.914;2022-09-25T03:04:15;100258.54;;;10.80;86.93
31911;BME280;18457;52.432;16.914;2022-09-25T03:06:45;100256.84;;;10.83;86.62
31911;BME280;18457;52.432;16.914;2022-09-25T03:09:16;100250.23;;;10.80;86.67
31911;BME280;18457;52.432;16.914;2022-09-25T03:11:46;100249.93;;;10.84;86.57
31911;BME280;18457;52.432;16.914;2022-09-25T03:14:15;100251.27;;;10.75;87.34
31911;BME280;18457;52.432;16.914;2022-09-25T03:16:46;100247.74;;;10.65;87.81
31911;BME280;18457;52.432;16.914;2022-09-25T03:19:15;100243.56;;;10.66;88.09
31911;BME280;18457;52.432;16.914;2022-09-25T03:21:46;100245.73;;;10.66;88.41
31911;BME280;18457;52.432;16.914;2022-09-25T03:24:15;100242.20;;;10.70;88.71
31911;BME280;18457;52.432;16.914;2022-09-25T03:26:44;100243.14;;;10.75;88.07
31911;BME280;18457;52.432;16.914;2022-09-25T03:29:12;100239.79;;;10.79;87.72
31911;BME280;18457;52.432;16.914;2022-09-25T03:31:41;100237.56;;;10.81;87.91
31911;BME280;18457;52.432;16.914;2022-09-25T03:34:11;100237.80;;;10.79;88.55
31911;BME280;18457;52.432;16.914;2022-09-25T03:36:40;100231.55;;;10.82;88.78
31911;BME280;18457;52.432;16.914;2022-09-25T03:39:09;100230.61;;;10.77;89.25
31911;BME280;18457;52.432;16.914;2022-09-25T03:41:37;100233.61;;;10.73;89.55
31911;BME280;18457;52.432;16.914;2022-09-25T03:44:05;100235.44;;;10.72;89.60
31911;BME280;18457;52.432;16.914;2022-09-25T03:46:35;100230.05;;;10.78;89.51
31911;BME280;18457;52.432;16.914;2022-09-25T03:49:03;100226.77;;;10.85;89.71
31911;BME280;18457;52.432;16.914;2022-09-25T03:51:32;100229.20;;;10.89;89.50
31911;BME280;18457;52.432;16.914;2022-09-25T03:54:02;100226.88;;;11.00;88.74
31911;BME280;18457;52.432;16.914;2022-09-25T03:56:31;100225.98;;;11.12;88.10
31911;BME280;18457;52.432;16.914;2022-09-25T03:58:59;100227.45;;;11.24;87.62
31911;BME280;18457;52.432;16.914;2022-09-25T04:01:28;100229.80;;;11.30;87.53
31911;BME280;18457;52.432;16.914;2022-09-25T04:03:57;100230.25;;;11.33;87.52
31911;BME280;18457;52.432;16.914;2022-09-25T04:06:27;100230.55;;;11.34;87.21
31911;BME280;18457;52.432;16.914;2022-09-25T04:08:56;100230.87;;;11.36;87.06
31911;BME280;18457;52.432;16.914;2022-09-25T04:11:24;100230.77;;;11.28;87.34
31911;BME280;18457;52.432;16.914;2022-09-25T04:13:52;100233.54;;;11.32;87.27
31911;BME280;18457;52.432;16.914;2022-09-25T04:16:21;100232.31;;;11.36;86.96
31911;BME280;18457;52.432;16.914;2022-09-25T04:18:50;100234.33;;;11.36;86.65
31911;BME280;18457;52.432;16.914;2022-09-25T04:21:18;100236.06;;;11.26;87.05
31911;BME280;18457;52.432;16.914;2022-09-25T04:23:46;100235.45;;;11.16;87.62
31911;BME280;18457;52.432;16.914;2022-09-25T04:26:29;100237.49;;;11.02;88.23
31911;BME280;18457;52.432;16.914;2022-09-25T04:28:58;100240.08;;;10.81;89.17
31911;BME280;18457;52.432;16.914;2022-09-25T04:31:28;100240.14;;;10.79;89.91
31911;BME280;18457;52.432;16.914;2022-09-25T04:33:56;100242.57;;;10.89;89.40
31911;BME280;18457;52.432;16.914;2022-09-25T04:36:25;100245.65;;;10.94;89.39
31911;BME280;18457;52.432;16.914;2022-09-25T04:38:53;100242.69;;;10.97;89.60
31911;BME280;18457;52.432;16.914;2022-09-25T04:41:21;100245.95;;;11.03;89.28
31911;BME280;18457;52.432;16.914;2022-09-25T04:43:49;100240.90;;;11.15;88.86
31911;BME280;18457;52.432;16.914;2022-09-25T04:46:18;100239.16;;;11.19;88.85
31911;BME280;18457;52.432;16.914;2022-09-25T04:48:50;100237.52;;;11.14;89.55
31911;BME280;18457;52.432;16.914;2022-09-25T04:51:18;100237.14;;;11.14;89.63
31911;BME280;18457;52.432;16.914;2022-09-25T04:53:47;100244.41;;;11.25;89.00
31911;BME280;18457;52.432;16.914;2022-09-25T04:56:15;100241.41;;;11.29;88.81
31911;BME280;18457;52.432;16.914;2022-09-25T04:58:45;100245.19;;;11.29;89.18
31911;BME280;18457;52.432;16.914;2022-09-25T05:01:15;100244.88;;;11.22;89.49
31911;BME280;18457;52.432;16.914;2022-09-25T05:03:47;100242.65;;;11.17;89.84
31911;BME280;18457;52.432;16.914;2022-09-25T05:06:16;100241.96;;;11.16;90.04
31911;BME280;18457;52.432;16.914;2022-09-25T05:08:46;100238.59;;;11.14;90.48
31911;BME280;18457;52.432;16.914;2022-09-25T05:11:16;100237.23;;;11.23;90.32
31911;BME280;18457;52.432;16.914;2022-09-25T05:13:47;100243.14;;;11.31;89.61
31911;BME280;18457;52.432;16.914;2022-09-25T05:16:16;100245.73;;;11.35;89.12
31911;BME280;18457;52.432;16.914;2022-09-25T05:18:44;100241.69;;;11.43;89.06
31911;BME280;18457;52.432;16.914;2022-09-25T05:21:13;100244.14;;;11.46;89.27
31911;BME280;18457;52.432;16.914;2022-09-25T05:23:41;100244.66;;;11.53;88.85
31911;BME280;18457;52.432;16.914;2022-09-25T05:26:09;100247.79;;;11.45;89.40
31911;BME280;18457;52.432;16.914;2022-09-25T05:28:37;100248.83;;;11.40;90.18
31911;BME280;18457;52.432;16.914;2022-09-25T05:31:06;100249.69;;;11.49;89.95
31911;BME280;18457;52.432;16.914;2022-09-25T05:33:35;100248.18;;;11.50;90.11
31911;BME280;18457;52.432;16.914;2022-09-25T05:36:05;100251.83;;;11.50;90.28
31911;BME280;18457;52.432;16.914;2022-09-25T05:38:35;100252.30;;;11.64;89.90
31911;BME280;18457;52.432;16.914;2022-09-25T05:41:06;100250.83;;;11.77;88.66
31911;BME280;18457;52.432;16.914;2022-09-25T05:43:38;100254.71;;;11.85;88.42
31911;BME280;18457;52.432;16.914;2022-09-25T05:46:07;100254.43;;;11.88;88.63
31911;BME280;18457;52.432;16.914;2022-09-25T05:48:36;100258.01;;;11.84;88.57
31911;BME280;18457;52.432;16.914;2022-09-25T05:51:05;100255.86;;;11.83;89.04
31911;BME280;18457;52.432;16.914;2022-09-25T05:53:33;100257.55;;;11.87;89.16
31911;BME280;18457;52.432;16.914;2022-09-25T05:56:04;100253.46;;;12.02;88.11
31911;BME280;18457;52.432;16.914;2022-09-25T05:58:33;100249.59;;;12.09;87.77
31911;BME280;18457;52.432;16.914;2022-09-25T06:01:04;100252.77;;;12.11;87.52
31911;BME280;18457;52.432;16.914;2022-09-25T06:03:33;100251.48;;;12.17;86.94
31911;BME280;18457;52.432;16.914;2022-09-25T06:06:02;100252.19;;;12.29;86.49
31911;BME280;18457;52.432;16.914;2022-09-25T06:08:31;100254.88;;;12.31;85.81
31911;BME280;18457;52.432;16.914;2022-09-25T06:11:02;100251.25;;;12.36;85.51
31911;BME280;18457;52.432;16.914;2022-09-25T06:13:33;100252.23;;;12.38;85.01
31911;BME280;18457;52.432;16.914;2022-09-25T06:16:10;100248.73;;;12.45;84.48
31911;BME280;18457;52.432;16.914;2022-09-25T06:18:40;100253.19;;;12.47;84.28
31911;BME280;18457;52.432;16.914;2022-09-25T06:21:08;100251.54;;;12.48;84.69
31911;BME280;18457;52.432;16.914;2022-09-25T06:23:37;100250.21;;;12.50;84.34
31911;BME280;18457;52.432;16.914;2022-09-25T06:26:06;100250.33;;;12.57;83.86
31911;BME280;18457;52.432;16.914;2022-09-25T06:28:36;100248.08;;;12.64;83.55
31911;BME280;18457;52.432;16.914;2022-09-25T06:31:05;100249.60;;;12.72;83.20
31911;BME280;18457;52.432;16.914;2022-09-25T06:33:34;100246.70;;;12.77;82.55
31911;BME280;18457;52.432;16.914;2022-09-25T06:36:05;100245.48;;;12.76;82.21
31911;BME280;18457;52.432;16.914;2022-09-25T06:38:34;100245.73;;;12.68;81.39
31911;BME280;18457;52.432;16.914;2022-09-25T06:41:02;100245.98;;;12.72;80.91
31911;BME280;18457;52.432;16.914;2022-09-25T06:43:34;100245.19;;;12.79;80.79
31911;BME280;18457;52.432;16.914;2022-09-25T06:46:02;100248.92;;;12.81;81.16
31911;BME280;18457;52.432;16.914;2022-09-25T06:48:31;100248.09;;;12.84;80.72
31911;BME280;18457;52.432;16.914;2022-09-25T06:51:00;100246.65;;;12.88;80.29
31911;BME280;18457;52.432;16.914;2022-09-25T06:53:29;100250.81;;;12.89;80.36
31911;BME280;18457;52.432;16.914;2022-09-25T06:55:57;100246.05;;;12.95;80.02
31911;BME280;18457;52.432;16.914;2022-09-25T06:58:27;100248.83;;;12.83;79.49
31911;BME280;18457;52.432;16.914;2022-09-25T07:00:57;100249.64;;;12.71;79.88
31911;BME280;18457;52.432;16.914;2022-09-25T07:03:26;100246.72;;;12.82;79.61
31911;BME280;18457;52.432;16.914;2022-09-25T07:06:15;100250.92;;;12.95;79.00
31911;BME280;18457;52.432;16.914;2022-09-25T07:08:44;100249.29;;;13.01;78.85
31911;BME280;18457;52.432;16.914;2022-09-25T07:11:16;100247.11;;;13.06;78.46
31911;BME280;18457;52.432;16.914;2022-09-25T07:13:46;100242.60;;;13.16;78.07
31911;BME280;18457;52.432;16.914;2022-09-25T07:16:16;100241.45;;;13.27;77.78
31911;BME280;18457;52.432;16.914;2022-09-25T07:18:46;100240.73;;;13.27;76.40
31911;BME280;18457;52.432;16.914;2022-09-25T07:21:16;100238.33;;;13.03;76.07
31911;BME280;18457;52.432;16.914;2022-09-25T07:23:46;100241.14;;;13.16;76.18
31911;BME280;18457;52.432;16.914;2022-09-25T07:26:17;100239.48;;;13.36;75.63
31911;BME280;18457;52.432;16.914;2022-09-25T07:28:53;100235.73;;;13.44;74.63
31911;BME280;18457;52.432;16.914;2022-09-25T07:31:23;100238.88;;;13.52;73.55
31911;BME280;18457;52.432;16.914;2022-09-25T07:33:52;100234.35;;;13.74;72.50
31911;BME280;18457;52.432;16.914;2022-09-25T07:36:21;100232.31;;;13.89;72.17
31911;BME280;18457;52.432;16.914;2022-09-25T07:38:50;100240.41;;;13.99;70.87
31911;BME280;18457;52.432;16.914;2022-09-25T07:41:19;100242.70;;;14.05;70.41
31911;BME280;18457;52.432;16.914;2022-09-25T07:43:51;100240.48;;;14.15;69.53
31911;BME280;18457;52.432;16.914;2022-09-25T07:46:41;100243.09;;;14.18;68.53
31911;BME280;18457;52.432;16.914;2022-09-25T07:49:10;100242.16;;;14.19;68.18
31911;BME280;18457;52.432;16.914;2022-09-25T07:51:38;100241.21;;;14.24;68.58
31911;BME280;18457;52.432;16.914;2022-09-25T07:54:07;100238.58;;;14.35;68.03
31911;BME280;18457;52.432;16.914;2022-09-25T07:56:35;100240.15;;;14.37;67.19
31911;BME280;18457;52.432;16.914;2022-09-25T07:59:05;100241.66;;;14.48;66.88
31911;BME280;18457;52.432;16.914;2022-09-25T08:01:33;100238.59;;;14.52;67.14
31911;BME280;18457;52.432;16.914;2022-09-25T08:04:08;100243.70;;;14.60;67.17
31911;BME280;18457;52.432;16.914;2022-09-25T08:06:37;100240.82;;;14.59;67.24
31911;BME280;18457;52.432;16.914;2022-09-25T08:09:05;100240.79;;;14.60;67.31
31911;BME280;18457;52.432;16.914;2022-09-25T08:11:38;100237.18;;;14.67;67.44
31911;BME280;18457;52.432;16.914;2022-09-25T08:14:06;100228.64;;;14.71;67.52
31911;BME280;18457;52.432;16.914;2022-09-25T08:16:35;100223.85;;;14.73;67.62
31911;BME280;18457;52.432;16.914;2022-09-25T08:19:03;100218.77;;;14.77;67.59
31911;BME280;18457;52.432;16.914;2022-09-25T08:21:33;100217.83;;;14.86;67.63
31911;BME280;18457;52.432;16.914;2022-09-25T08:24:02;100216.16;;;14.94;67.89
31911;BME280;18457;52.432;16.914;2022-09-25T08:26:31;100218.30;;;15.03;67.89
31911;BME280;18457;52.432;16.914;2022-09-25T08:29:00;100218.55;;;15.06;67.73
31911;BME280;18457;52.432;16.914;2022-09-25T08:31:28;100220.69;;;14.99;67.98
31911;BME280;18457;52.432;16.914;2022-09-25T08:33:57;100220.38;;;15.02;67.76
31911;BME280;18457;52.432;16.914;2022-09-25T08:36:48;100218.45;;;15.12;67.40
31911;BME280;18457;52.432;16.914;2022-09-25T08:39:17;100218.17;;;15.18;66.79
31911;BME280;18457;52.432;16.914;2022-09-25T08:41:48;100216.17;;;15.30;66.90
31911;BME280;18457;52.432;16.914;2022-09-25T08:44:23;100217.80;;;15.30;66.38
31911;BME280;18457;52.432;16.914;2022-09-25T08:46:55;100217.53;;;15.24;66.19
31911;BME280;18457;52.432;16.914;2022-09-25T08:49:54;100218.02;;;15.33;66.30
31911;BME280;18457;52.432;16.914;2022-09-25T08:52:25;100220.78;;;15.36;66.53
31911;BME280;18457;52.432;16.914;2022-09-25T08:54:53;100220.67;;;15.43;66.08
31911;BME280;18457;52.432;16.914;2022-09-25T08:57:29;100220.63;;;15.44;66.20
31911;BME280;18457;52.432;16.914;2022-09-25T09:00:05;100216.69;;;15.46;66.21
31911;BME280;18457;52.432;16.914;2022-09-25T09:02:40;100217.86;;;15.36;66.03
31911;BME280;18457;52.432;16.914;2022-09-25T09:05:18;100221.25;;;15.38;65.51
31911;BME280;18457;52.432;16.914;2022-09-25T09:07:52;100213.84;;;15.45;65.97
31911;BME280;18457;52.432;16.914;2022-09-25T09:10:29;100219.54;;;15.59;66.05
31911;BME280;18457;52.432;16.914;2022-09-25T09:13:14;100211.70;;;15.67;66.12
31911;BME280;18457;52.432;16.914;2022-09-25T09:15:48;100204.90;;;15.68;65.29
31911;BME280;18457;52.432;16.914;2022-09-25T09:18:22;100202.59;;;15.67;65.50
31911;BME280;18457;52.432;16.914;2022-09-25T09:20:53;100200.20;;;15.75;65.31
31911;BME280;18457;52.432;16.914;2022-09-25T09:23:23;100199.15;;;15.66;65.66
31911;BME280;18457;52.432;16.914;2022-09-25T09:26:00;100200.32;;;15.72;65.23
31911;BME280;18457;52.432;16.914;2022-09-25T09:31:41;100198.74;;;15.82;64.48
31911;BME280;18457;52.432;16.914;2022-09-25T09:34:27;100200.42;;;15.85;63.73
31911;BME280;18457;52.432;16.914;2022-09-25T09:37:23;100201.08;;;15.90;63.76
31911;BME280;18457;52.432;16.914;2022-09-25T09:40:06;100196.77;;;16.00;63.59
31911;BME280;18457;52.432;16.914;2022-09-25T09:42:48;100190.33;;;16.08;63.23
31911;BME280;18457;52.432;16.914;2022-09-25T09:45:23;100189.73;;;16.17;62.51
31911;BME280;18457;52.432;16.914;2022-09-25T09:48:00;100187.70;;;16.17;62.80
31911;BME280;18457;52.432;16.914;2022-09-25T09:50:40;100184.83;;;16.27;62.22
31911;BME280;18457;52.432;16.914;2022-09-25T09:53:22;100187.54;;;16.24;62.48
31911;BME280;18457;52.432;16.914;2022-09-25T09:55:55;100186.24;;;16.42;62.71
31911;BME280;18457;52.432;16.914;2022-09-25T09:58:27;100182.83;;;16.48;62.57
31911;BME280;18457;52.432;16.914;2022-09-25T10:00:58;100181.32;;;16.53;61.76
31911;BME280;18457;52.432;16.914;2022-09-25T10:03:44;100180.54;;;16.61;61.95
31911;BME280;18457;52.432;16.914;2022-09-25T10:06:15;100175.96;;;16.72;61.33
31911;BME280;18457;52.432;16.914;2022-09-25T10:08:49;100175.63;;;16.75;60.33
31911;BME280;18457;52.432;16.914;2022-09-25T10:11:18;100171.67;;;16.67;59.75
31911;BME280;18457;52.432;16.914;2022-09-25T10:13:47;100168.89;;;16.71;59.97
31911;BME280;18457;52.432;16.914;2022-09-25T10:16:18;100169.25;;;16.81;59.47
31911;BME280;18457;52.432;16.914;2022-09-25T10:18:52;100168.46;;;16.89;59.10
31911;BME280;18457;52.432;16.914;2022-09-25T10:21:21;100170.39;;;16.94;58.63
31911;BME280;18457;52.432;16.914;2022-09-25T10:23:52;100165.11;;;16.90;59.13
31911;BME280;18457;52.432;16.914;2022-09-25T10:26:27;100163.61;;;16.94;59.32
31911;BME280;18457;52.432;16.914;2022-09-25T10:28:57;100164.13;;;17.02;58.78
31911;BME280;18457;52.432;16.914;2022-09-25T10:31:28;100157.48;;;17.09;58.66
31911;BME280;18457;52.432;16.914;2022-09-25T10:34:10;100158.30;;;17.14;58.36
31911;BME280;18457;52.432;16.914;2022-09-25T10:36:46;100156.16;;;17.23;58.43
31911;BME280;18457;52.432;16.914;2022-09-25T10:39:27;100157.89;;;17.31;57.17
31911;BME280;18457;52.432;16.914;2022-09-25T10:42:30;100154.64;;;17.54;55.91
31911;BME280;18457;52.432;16.914;2022-09-25T10:44:59;100153.75;;;17.63;55.58
31911;BME280;18457;52.432;16.914;2022-09-25T10:47:42;100147.42;;;17.65;55.53
31911;BME280;18457;52.432;16.914;2022-09-25T10:50:30;100140.19;;;17.61;54.87
31911;BME280;18457;52.432;16.914;2022-09-25T10:52:59;100141.11;;;17.70;54.57
31911;BME280;18457;52.432;16.914;2022-09-25T10:55:31;100137.05;;;17.74;55.31
31911;BME280;18457;52.432;16.914;2022-09-25T10:58:07;100133.11;;;17.69;54.51
31911;BME280;18457;52.432;16.914;2022-09-25T11:00:50;100131.10;;;17.60;53.60
31911;BME280;18457;52.432;16.914;2022-09-25T11:03:22;100133.58;;;17.64;54.02
31911;BME280;18457;52.432;16.914;2022-09-25T11:05:53;100132.55;;;17.69;53.34
31911;BME280;18457;52.432;16.914;2022-09-25T11:08:26;100129.09;;;18.00;52.92
31911;BME280;18457;52.432;16.914;2022-09-25T11:10:58;100127.25;;;18.37;53.12
31911;BME280;18457;52.432;16.914;2022-09-25T11:13:29;100123.52;;;18.54;49.37
31911;BME280;18457;52.432;16.914;2022-09-25T11:16:05;100119.23;;;18.67;49.81
31911;BME280;18457;52.432;16.914;2022-09-25T11:18:40;100115.05;;;18.81;50.20
31911;BME280;18457;52.432;16.914;2022-09-25T11:21:19;100112.80;;;19.02;50.36
31911;BME280;18457;52.432;16.914;2022-09-25T11:24:00;100104.35;;;19.19;50.16
31911;BME280;18457;52.432;16.914;2022-09-25T11:26:36;100110.84;;;19.18;49.55
31911;BME280;18457;52.432;16.914;2022-09-25T11:29:11;100112.64;;;19.47;49.93
31911;BME280;18457;52.432;16.914;2022-09-25T11:31:45;100111.42;;;19.41;48.79
31911;BME280;18457;52.432;16.914;2022-09-25T11:34:22;100110.70;;;19.11;48.55
31911;BME280;18457;52.432;16.914;2022-09-25T11:37:00;100109.61;;;19.20;48.27
31911;BME280;18457;52.432;16.914;2022-09-25T11:39:37;100107.45;;;19.28;47.71
31911;BME280;18457;52.432;16.914;2022-09-25T11:42:31;100103.94;;;19.32;47.46
31911;BME280;18457;52.432;16.914;2022-09-25T11:45:08;100103.45;;;19.61;47.74
31911;BME280;18457;52.432;16.914;2022-09-25T11:47:46;100097.98;;;19.66;46.53
31911;BME280;18457;52.432;16.914;2022-09-25T11:50:22;100099.52;;;19.84;46.73
31911;BME280;18457;52.432;16.914;2022-09-25T11:53:00;100095.75;;;19.75;46.16
31911;BME280;18457;52.432;16.914;2022-09-25T11:55:41;100094.77;;;19.59;46.96
31911;BME280;18457;52.432;16.914;2022-09-25T11:58:29;100089.83;;;19.59;46.45
31911;BME280;18457;52.432;16.914;2022-09-25T12:01:11;100090.02;;;19.51;47.08
31911;BME280;18457;52.432;16.914;2022-09-25T12:03:56;100079.63;;;19.42;47.02
31911;BME280;18457;52.432;16.914;2022-09-25T12:06:52;100076.42;;;19.44;47.19
31911;BME280;18457;52.432;16.914;2022-09-25T12:09:42;100074.04;;;19.26;46.94
31911;BME280;18457;52.432;16.914;2022-09-25T12:12:17;100073.16;;;19.43;46.73
31911;BME280;18457;52.432;16.914;2022-09-25T12:14:54;100067.13;;;19.56;46.87
31911;BME280;18457;52.432;16.914;2022-09-25T12:17:35;100068.34;;;19.57;46.47
31911;BME280;18457;52.432;16.914;2022-09-25T12:20:14;100069.27;;;19.65;47.28
31911;BME280;18457;52.432;16.914;2022-09-25T12:22:53;100066.73;;;19.91;45.82
31911;BME280;18457;52.432;16.914;2022-09-25T12:25:39;100062.17;;;19.86;45.66
31911;BME280;18457;52.432;16.914;2022-09-25T12:28:18;100065.39;;;20.14;45.67
31911;BME280;18457;52.432;16.914;2022-09-25T12:30:57;100066.71;;;20.14;44.84
31911;BME280;18457;52.432;16.914;2022-09-25T12:33:39;100058.33;;;19.91;45.45
31911;BME280;18457;52.432;16.914;2022-09-25T12:36:15;100057.38;;;19.84;45.63
31911;BME280;18457;52.432;16.914;2022-09-25T12:38:48;100052.54;;;19.69;45.78
31911;BME280;18457;52.432;16.914;2022-09-25T12:41:27;100049.27;;;19.57;45.59
31911;BME280;18457;52.432;16.914;2022-09-25T12:44:05;100046.40;;;19.65;46.08
31911;BME280;18457;52.432;16.914;2022-09-25T12:46:42;100049.47;;;19.52;45.58
31911;BME280;18457;52.432;16.914;2022-09-25T12:49:17;100051.30;;;19.52;45.44
31911;BME280;18457;52.432;16.914;2022-09-25T12:51:48;100045.48;;;19.59;45.54
31911;BME280;18457;52.432;16.914;2022-09-25T12:54:23;100042.40;;;19.69;45.80
31911;BME280;18457;52.432;16.914;2022-09-25T12:56:56;100042.35;;;19.89;45.33
31911;BME280;18457;52.432;16.914;2022-09-25T12:59:29;100040.27;;;20.09;45.51
31911;BME280;18457;52.432;16.914;2022-09-25T13:02:05;100039.27;;;20.29;45.17
31911;BME280;18457;52.432;16.914;2022-09-25T13:04:59;100042.91;;;20.32;44.36
31911;BME280;18457;52.432;16.914;2022-09-25T13:07:35;100039.39;;;20.00;44.18
31911;BME280;18457;52.432;16.914;2022-09-25T13:10:22;100043.71;;;20.15;43.84
31911;BME280;18457;52.432;16.914;2022-09-25T13:12:54;100040.76;;;20.15;43.41
31911;BME280;18457;52.432;16.914;2022-09-25T13:15:24;100035.21;;;20.05;44.16